createdAt,value
2022-08-17T00:00:34.350Z,17.67
2022-08-17T00:01:52.146Z,15.45
2022-08-17T00:03:06.006Z,14.65
2022-08-17T00:04:11.945Z,16.33
2022-08-17T00:05:15.793Z,25.15
2022-08-17T00:06:24.983Z,14.20
2022-08-17T00:07:27.784Z,20.23
2022-08-17T00:08:31.994Z,16.13
2022-08-17T00:09:34.669Z,18.08
2022-08-17T00:10:37.691Z,21.92
2022-08-17T00:11:42.878Z,18.50
2022-08-17T00:13:08.367Z,15.10
2022-08-17T00:14:16.863Z,19.27
2022-08-17T00:15:21.398Z,18.40
2022-08-17T00:16:55.906Z,19.80
2022-08-17T00:17:54.199Z,14.63
2022-08-17T00:19:07.449Z,18.35
2022-08-17T00:20:12.228Z,18.02
2022-08-17T00:21:16.450Z,13.07
2022-08-17T00:22:35.079Z,18.70
2022-08-17T00:23:47.677Z,23.73
2022-08-17T00:24:51.953Z,15.57
2022-08-17T00:25:55.208Z,20.38
2022-08-17T00:26:58.023Z,13.73
2022-08-17T00:28:00.708Z,15.60
2022-08-17T00:29:03.926Z,17.08
2022-08-17T00:30:09.274Z,15.70
2022-08-17T00:31:12.347Z,15.00
2022-08-17T00:33:10.928Z,18.67
2022-08-17T00:33:40.403Z,18.33
2022-08-17T00:34:43.149Z,11.55
2022-08-17T00:35:48.191Z,15.20
2022-08-17T00:36:51.042Z,16.55
2022-08-17T00:37:54.390Z,18.05
2022-08-17T00:38:56.973Z,19.55
2022-08-17T00:39:59.853Z,18.90
2022-08-17T00:41:12.212Z,17.70
2022-08-17T00:42:19.025Z,20.95
2022-08-17T00:43:30.315Z,18.48
2022-08-17T00:44:32.994Z,14.18
2022-08-17T00:45:35.522Z,16.60
2022-08-17T00:46:41.087Z,20.67
2022-08-17T00:47:44.286Z,16.33
2022-08-17T00:48:48.067Z,17.58
2022-08-17T00:49:50.803Z,19.33
2022-08-17T00:51:10.867Z,12.07
2022-08-17T00:52:16.800Z,15.23
2022-08-17T00:53:20.303Z,20.77
2022-08-17T00:54:27.684Z,17.95
2022-08-17T00:55:30.574Z,18.27
2022-08-17T00:56:38.858Z,12.60
2022-08-17T00:57:45.051Z,13.05
2022-08-17T00:58:49.739Z,16.58
2022-08-17T01:00:03.344Z,17.65
2022-08-17T01:01:07.947Z,17.38
2022-08-17T01:02:12.788Z,19.67
2022-08-17T01:03:19.578Z,17.17
2022-08-17T01:04:23.065Z,16.55
2022-08-17T01:05:30.147Z,16.98
2022-08-17T01:06:34.009Z,20.60
2022-08-17T01:07:38.125Z,17.15
2022-08-17T01:08:41.312Z,12.77
2022-08-17T01:09:44.714Z,20.60
2022-08-17T01:11:00.381Z,15.02
2022-08-17T01:12:09.195Z,16.73
2022-08-17T01:13:12.903Z,18.25
2022-08-17T01:14:15.804Z,13.65
2022-08-17T01:15:18.649Z,14.43
2022-08-17T01:16:30.016Z,13.40
2022-08-17T01:17:33.479Z,12.07
2022-08-17T01:18:36.327Z,18.65
2022-08-17T01:19:41.393Z,14.10
2022-08-17T01:20:53.865Z,13.73
2022-08-17T01:22:11.820Z,15.05
2022-08-17T01:23:20.919Z,11.73
2022-08-17T01:24:23.917Z,18.35
2022-08-17T01:25:28.436Z,20.33
2022-08-17T01:26:33.104Z,18.08
2022-08-17T01:27:36.885Z,11.90
2022-08-17T01:28:54.926Z,18.83
2022-08-17T01:30:01.632Z,15.95
2022-08-17T01:31:06.359Z,15.57
2022-08-17T01:32:09.356Z,12.98
2022-08-17T01:33:12.843Z,14.52
2022-08-17T01:34:16.952Z,12.75
2022-08-17T01:35:20.196Z,13.00
2022-08-17T01:36:22.790Z,20.02
2022-08-17T01:37:33.414Z,15.20
2022-08-17T01:39:48.910Z,12.27
2022-08-17T01:40:57.454Z,16.10
2022-08-17T01:42:29.935Z,14.40
2022-08-17T01:43:39.106Z,15.50
2022-08-17T01:44:41.688Z,15.45
2022-08-17T01:45:47.104Z,21.08
2022-08-17T01:46:49.830Z,18.45
2022-08-17T01:47:53.931Z,17.15
2022-08-17T01:48:57.687Z,15.80
2022-08-17T01:50:09.550Z,13.57
2022-08-17T01:51:12.281Z,16.30
2022-08-17T01:52:15.360Z,16.10
2022-08-17T01:53:29.495Z,13.20
2022-08-17T01:54:32.271Z,21.17
2022-08-17T01:55:46.464Z,13.02
2022-08-17T01:56:50.846Z,16.65
2022-08-17T01:57:53.838Z,18.52
2022-08-17T01:58:57.284Z,17.80
2022-08-17T02:00:00.110Z,19.10
2022-08-17T02:01:03.299Z,16.80
2022-08-17T02:02:07.472Z,13.90
2022-08-17T02:03:10.635Z,15.18
2022-08-17T02:04:13.569Z,16.48
2022-08-17T02:05:16.426Z,15.40
2022-08-17T02:06:26.998Z,13.43
2022-08-17T02:07:30.956Z,16.15
2022-08-17T02:08:38.873Z,15.52
2022-08-17T02:09:44.047Z,17.70
2022-08-17T02:10:55.618Z,16.10
2022-08-17T02:12:37.717Z,19.88
2022-08-17T02:13:23.342Z,17.17
2022-08-17T02:14:26.653Z,19.02
2022-08-17T02:15:29.427Z,16.90
2022-08-17T02:16:37.872Z,12.13
2022-08-17T02:17:41.048Z,13.88
2022-08-17T02:18:44.441Z,20.30
2022-08-17T02:19:47.083Z,15.45
2022-08-17T02:20:49.915Z,14.48
2022-08-17T02:21:53.891Z,14.05
2022-08-17T02:22:56.744Z,17.80
2022-08-17T02:23:59.565Z,14.73
2022-08-17T02:25:03.789Z,14.60
2022-08-17T02:26:07.303Z,17.65
2022-08-17T02:27:09.883Z,19.27
2022-08-17T02:28:12.665Z,13.93
2022-08-17T02:29:15.858Z,13.32
2022-08-17T02:30:59.915Z,23.63
2022-08-17T02:31:42.229Z,16.92
2022-08-17T02:32:44.919Z,15.95
2022-08-17T02:33:56.631Z,13.93
2022-08-17T02:35:08.900Z,12.65
2022-08-17T02:36:12.894Z,16.38
2022-08-17T02:37:17.927Z,13.98
2022-08-17T02:38:20.550Z,15.32
2022-08-17T02:39:23.299Z,13.00
2022-08-17T02:40:36.105Z,17.98
2022-08-17T02:41:40.147Z,16.88
2022-08-17T02:42:44.332Z,15.90
2022-08-17T02:43:47.019Z,13.07
2022-08-17T02:44:49.767Z,19.45
2022-08-17T02:45:52.570Z,13.05
2022-08-17T02:46:55.525Z,16.95
2022-08-17T02:47:58.416Z,14.77
2022-08-17T02:49:01.258Z,12.88
2022-08-17T02:50:05.665Z,13.02
2022-08-17T02:51:09.238Z,15.27
2022-08-17T02:52:11.756Z,14.57
2022-08-17T02:53:14.609Z,17.95
2022-08-17T02:54:39.953Z,12.35
2022-08-17T02:55:42.007Z,16.00
2022-08-17T02:56:45.034Z,15.25
2022-08-17T02:57:48.608Z,21.15
2022-08-17T02:58:51.665Z,17.15
2022-08-17T02:59:54.311Z,17.20
2022-08-17T03:00:57.152Z,18.30
2022-08-17T03:02:00.042Z,13.77
2022-08-17T03:03:05.249Z,16.35
2022-08-17T03:04:08.059Z,16.73
2022-08-17T03:05:12.757Z,16.13
2022-08-17T03:06:15.404Z,15.43
2022-08-17T03:07:20.342Z,16.25
2022-08-17T03:08:23.508Z,18.30
2022-08-17T03:09:26.531Z,18.40
2022-08-17T03:10:29.929Z,13.20
2022-08-17T03:11:32.780Z,15.60
2022-08-17T03:12:39.981Z,15.10
2022-08-17T03:13:42.610Z,14.23
2022-08-17T03:14:45.447Z,13.02
2022-08-17T03:15:48.834Z,18.00
2022-08-17T03:16:51.317Z,14.50
2022-08-17T03:17:55.465Z,13.50
2022-08-17T03:18:58.124Z,16.02
2022-08-17T03:20:00.850Z,16.42
2022-08-17T03:21:04.546Z,16.20
2022-08-17T03:22:37.377Z,15.55
2022-08-17T03:23:32.897Z,16.00
2022-08-17T03:24:35.607Z,19.65
2022-08-17T03:25:43.432Z,18.90
2022-08-17T03:26:46.828Z,19.05
2022-08-17T03:27:50.267Z,16.95
2022-08-17T03:28:54.596Z,16.10
2022-08-17T03:29:57.332Z,15.25
2022-08-17T03:30:59.979Z,13.32
2022-08-17T03:32:14.350Z,14.77
2022-08-17T03:33:17.569Z,12.05
2022-08-17T03:34:20.265Z,13.65
2022-08-17T03:35:26.948Z,14.23
2022-08-17T03:36:29.676Z,14.10
2022-08-17T03:37:34.131Z,14.88
2022-08-17T03:38:39.375Z,25.80
2022-08-17T03:39:43.061Z,17.73
2022-08-17T03:40:56.997Z,17.95
2022-08-17T03:42:31.900Z,16.48
2022-08-17T03:43:35.830Z,15.63
2022-08-17T03:44:38.527Z,17.95
2022-08-17T03:46:01.179Z,14.68
2022-08-17T03:47:24.448Z,21.15
2022-08-17T03:48:46.169Z,16.50
2022-08-17T03:50:07.552Z,13.82
2022-08-17T03:51:42.646Z,15.98
2022-08-17T03:53:04.110Z,16.05
2022-08-17T03:54:25.982Z,16.02
2022-08-17T03:56:00.575Z,12.60
2022-08-17T03:57:06.232Z,14.45
2022-08-17T03:58:08.899Z,21.35
2022-08-17T03:59:20.815Z,13.95
2022-08-17T04:00:25.140Z,19.25
2022-08-17T04:01:27.989Z,20.92
2022-08-17T04:02:32.936Z,19.80
2022-08-17T04:03:35.952Z,18.10
2022-08-17T04:04:39.287Z,16.55
2022-08-17T04:05:42.087Z,31.83
2022-08-17T04:06:44.859Z,19.80
2022-08-17T04:07:47.984Z,17.67
2022-08-17T04:08:50.602Z,19.63
2022-08-17T04:09:53.251Z,22.00
2022-08-17T04:10:56.689Z,18.65
2022-08-17T04:12:00.299Z,22.33
2022-08-17T04:13:07.194Z,18.40
2022-08-17T04:14:10.004Z,21.60
2022-08-17T04:15:13.334Z,20.10
2022-08-17T04:16:16.032Z,17.95
2022-08-17T04:17:18.604Z,26.05
2022-08-17T04:18:22.640Z,18.98
2022-08-17T04:19:25.332Z,17.25
2022-08-17T04:20:28.525Z,20.17
2022-08-17T04:21:31.234Z,18.27
2022-08-17T04:22:34.474Z,20.83
2022-08-17T04:23:38.030Z,16.60
2022-08-17T04:24:40.811Z,16.35
2022-08-17T04:25:49.313Z,16.75
2022-08-17T04:26:54.347Z,23.80
2022-08-17T04:27:57.360Z,17.20
2022-08-17T04:29:00.043Z,22.85
2022-08-17T04:30:03.874Z,18.42
2022-08-17T04:31:06.658Z,16.52
2022-08-17T04:32:10.364Z,19.48
2022-08-17T04:33:16.033Z,20.77
2022-08-17T04:34:19.931Z,23.52
2022-08-17T04:35:26.417Z,14.60
2022-08-17T04:36:29.026Z,19.05
2022-08-17T04:37:31.820Z,15.05
2022-08-17T04:38:37.260Z,16.23
2022-08-17T04:39:39.980Z,15.73
2022-08-17T04:41:01.614Z,13.75
2022-08-17T04:42:16.986Z,18.20
2022-08-17T04:43:22.107Z,17.17
2022-08-17T04:44:36.763Z,18.10
2022-08-17T04:45:55.088Z,17.77
2022-08-17T04:46:58.624Z,15.48
2022-08-17T04:48:01.636Z,16.83
2022-08-17T04:49:07.196Z,17.35
2022-08-17T04:50:10.160Z,17.95
2022-08-17T04:51:16.971Z,14.77
2022-08-17T04:52:29.737Z,16.65
2022-08-17T04:53:45.990Z,15.40
2022-08-17T04:54:57.020Z,18.63
2022-08-17T04:55:59.752Z,16.02
2022-08-17T04:57:02.639Z,17.33
2022-08-17T04:58:05.552Z,16.40
2022-08-17T04:59:11.657Z,19.08
2022-08-17T05:00:14.605Z,14.98
2022-08-17T05:01:23.614Z,14.40
2022-08-17T05:02:27.098Z,18.93
2022-08-17T05:03:30.595Z,14.55
2022-08-17T05:04:35.029Z,12.52
2022-08-17T05:05:40.105Z,13.23
2022-08-17T05:06:42.903Z,19.50
2022-08-17T05:07:45.621Z,14.02
2022-08-17T05:08:48.434Z,12.68
2022-08-17T05:09:51.106Z,13.15
2022-08-17T05:10:53.799Z,15.63
2022-08-17T05:11:56.473Z,17.33
2022-08-17T05:13:15.541Z,17.05
2022-08-17T05:14:18.243Z,15.70
2022-08-17T05:15:20.820Z,13.02
2022-08-17T05:16:26.750Z,14.13
2022-08-17T05:17:29.514Z,12.25
2022-08-17T05:18:32.734Z,16.50
2022-08-17T05:19:35.499Z,10.73
2022-08-17T05:20:41.432Z,13.25
2022-08-17T05:21:44.185Z,14.95
2022-08-17T05:22:51.626Z,16.80
2022-08-17T05:23:56.853Z,10.55
2022-08-17T05:25:01.762Z,14.73
2022-08-17T05:26:07.055Z,11.52
2022-08-17T05:27:16.777Z,11.98
2022-08-17T05:28:27.473Z,12.00
2022-08-17T05:29:34.451Z,13.13
2022-08-17T05:30:40.846Z,16.05
2022-08-17T05:31:43.617Z,14.57
2022-08-17T05:33:05.016Z,9.35
2022-08-17T05:34:07.798Z,9.93
2022-08-17T05:35:10.979Z,19.52
2022-08-17T05:36:42.331Z,11.65
2022-08-17T05:37:39.167Z,14.07
2022-08-17T05:38:42.242Z,15.48
2022-08-17T05:39:45.120Z,13.70
2022-08-17T05:40:48.131Z,11.30
2022-08-17T05:41:50.943Z,11.82
2022-08-17T05:43:08.416Z,13.40
2022-08-17T05:44:11.029Z,15.27
2022-08-17T05:45:15.961Z,10.98
2022-08-17T05:46:29.164Z,11.63
2022-08-17T05:47:31.932Z,13.20
2022-08-17T05:48:42.403Z,10.05
2022-08-17T05:49:45.234Z,11.55
2022-08-17T05:51:05.197Z,8.35
2022-08-17T05:52:38.999Z,9.52
2022-08-17T05:53:56.974Z,13.02
2022-08-17T05:55:13.010Z,10.23
2022-08-17T05:56:39.470Z,13.98
2022-08-17T05:58:03.921Z,11.02
2022-08-17T05:59:23.153Z,11.90
2022-08-17T06:00:31.299Z,14.30
2022-08-17T06:01:47.990Z,12.73
2022-08-17T06:03:27.577Z,10.05
2022-08-17T06:04:52.928Z,9.77
2022-08-17T06:06:32.620Z,13.25
2022-08-17T06:07:49.734Z,8.18
2022-08-17T06:09:24.754Z,8.90
2022-08-17T06:10:36.224Z,7.88
2022-08-17T06:12:01.484Z,10.90
2022-08-17T06:13:18.942Z,18.83
2022-08-17T06:14:46.330Z,9.90
2022-08-17T06:15:55.371Z,9.65
2022-08-17T06:17:05.853Z,7.85
2022-08-17T06:18:10.486Z,7.82
2022-08-17T06:19:17.548Z,8.68
2022-08-17T06:20:20.142Z,8.65
2022-08-17T06:21:28.426Z,9.32
2022-08-17T06:22:37.905Z,9.95
2022-08-17T06:23:48.878Z,7.15
2022-08-17T06:24:58.226Z,7.95
2022-08-17T06:26:09.016Z,10.90
2022-08-17T06:27:20.475Z,7.88
2022-08-17T06:28:31.941Z,11.23
2022-08-17T06:29:53.237Z,10.13
2022-08-17T06:31:01.085Z,11.52
2022-08-17T06:32:06.102Z,7.05
2022-08-17T06:33:14.780Z,11.95
2022-08-17T06:34:17.533Z,11.43
2022-08-17T06:35:33.541Z,8.07
2022-08-17T06:36:50.038Z,8.38
2022-08-17T06:38:34.963Z,7.63
2022-08-17T06:39:55.193Z,12.80
2022-08-17T06:41:06.738Z,9.65
2022-08-17T06:43:05.054Z,10.23
2022-08-17T06:44:49.660Z,10.98
2022-08-17T06:45:49.353Z,11.43
2022-08-17T06:46:58.202Z,13.02
2022-08-17T06:48:24.874Z,10.18
2022-08-17T06:49:40.217Z,10.13
2022-08-17T06:50:49.834Z,8.07
2022-08-17T06:52:43.465Z,17.13
2022-08-17T06:53:53.672Z,10.52
2022-08-17T06:55:09.650Z,7.22
2022-08-17T06:56:53.844Z,10.95
2022-08-17T06:58:05.257Z,12.95
2022-08-17T06:59:53.227Z,7.65
2022-08-17T07:00:58.124Z,9.85
2022-08-17T07:02:05.668Z,6.97
2022-08-17T07:03:09.039Z,9.88
2022-08-17T07:04:19.684Z,7.32
2022-08-17T07:05:27.376Z,9.90
2022-08-17T07:06:37.716Z,18.17
2022-08-17T07:08:03.777Z,6.97
2022-08-17T07:09:08.636Z,12.25
2022-08-17T07:10:11.366Z,7.88
2022-08-17T07:11:28.243Z,12.10
2022-08-17T07:12:38.675Z,9.82
2022-08-17T07:13:51.505Z,9.27
2022-08-17T07:15:05.573Z,4.90
2022-08-17T07:16:31.605Z,8.38
2022-08-17T07:17:46.993Z,8.80
2022-08-17T07:18:59.346Z,6.60
2022-08-17T07:20:09.904Z,10.32
2022-08-17T07:21:48.270Z,7.60
2022-08-17T07:23:08.743Z,7.93
2022-08-17T07:24:33.295Z,7.13
2022-08-17T07:25:36.510Z,7.38
2022-08-17T07:26:39.220Z,9.65
2022-08-17T07:28:03.886Z,10.32
2022-08-17T07:29:10.760Z,9.73
2022-08-17T07:30:25.636Z,11.65
2022-08-17T07:31:30.584Z,6.05
2022-08-17T07:32:48.217Z,10.60
2022-08-17T07:34:04.320Z,9.13
2022-08-17T07:35:11.133Z,6.40
2022-08-17T07:36:29.961Z,7.50
2022-08-17T07:37:33.517Z,7.55
2022-08-17T07:38:36.266Z,7.60
2022-08-17T07:40:14.753Z,6.80
2022-08-17T07:41:06.923Z,7.70
2022-08-17T07:42:10.691Z,9.95
2022-08-17T07:43:23.028Z,8.07
2022-08-17T07:44:26.612Z,5.65
2022-08-17T07:45:49.224Z,11.20
2022-08-17T07:47:22.567Z,5.38
2022-08-17T07:48:27.252Z,4.80
2022-08-17T07:49:35.261Z,7.75
2022-08-17T07:50:37.915Z,8.13
2022-08-17T07:52:48.534Z,5.07
2022-08-17T07:53:32.123Z,3.30
2022-08-17T07:54:41.068Z,5.03
2022-08-17T07:55:45.869Z,5.70
2022-08-17T07:57:00.462Z,8.45
2022-08-17T07:58:03.706Z,6.25
2022-08-17T07:59:33.382Z,9.00
2022-08-17T08:00:37.376Z,5.47
2022-08-17T08:01:42.536Z,5.45
2022-08-17T08:02:57.845Z,7.53
2022-08-17T08:04:01.016Z,3.33
2022-08-17T08:05:30.798Z,9.75
2022-08-17T08:06:52.831Z,6.85
2022-08-17T08:08:02.226Z,10.68
2022-08-17T08:09:04.957Z,4.15
2022-08-17T08:10:14.004Z,6.60
2022-08-17T08:11:30.431Z,7.75
2022-08-17T08:12:47.684Z,4.25
2022-08-17T08:13:50.282Z,7.30
2022-08-17T08:15:19.096Z,6.60
2022-08-17T08:16:32.074Z,5.40
2022-08-17T08:17:45.484Z,5.07
2022-08-17T08:18:56.085Z,10.23
2022-08-17T08:20:00.849Z,5.97
2022-08-17T08:21:52.271Z,4.65
2022-08-17T08:23:25.676Z,8.52
2022-08-17T08:25:20.817Z,4.78
2022-08-17T08:26:49.162Z,8.40
2022-08-17T08:28:28.377Z,7.78
2022-08-17T08:29:53.498Z,6.18
2022-08-17T08:31:42.032Z,5.03
2022-08-17T08:32:48.614Z,6.40
2022-08-17T08:34:03.011Z,5.13
2022-08-17T08:35:08.005Z,8.13
2022-08-17T08:37:02.030Z,6.68
2022-08-17T08:38:24.861Z,6.07
2022-08-17T08:39:55.997Z,5.68
2022-08-17T08:41:13.287Z,4.05
2022-08-17T08:42:34.752Z,4.63
2022-08-17T08:44:02.765Z,5.43
2022-08-17T08:45:21.989Z,5.00
2022-08-17T08:46:34.911Z,5.35
2022-08-17T08:48:22.705Z,4.13
2022-08-17T08:50:03.235Z,9.07
2022-08-17T08:51:29.112Z,3.92
2022-08-17T08:52:49.297Z,4.25
2022-08-17T08:54:12.326Z,7.03
2022-08-17T08:55:34.599Z,6.47
2022-08-17T08:57:11.534Z,7.10
2022-08-17T08:58:41.350Z,3.28
2022-08-17T09:00:09.033Z,9.40
2022-08-17T09:01:28.823Z,5.35
2022-08-17T09:03:31.767Z,8.10
2022-08-17T09:05:15.001Z,8.35
2022-08-17T09:06:45.425Z,4.35
2022-08-17T09:08:00.790Z,9.82
2022-08-17T09:09:16.470Z,11.57
2022-08-17T09:10:19.586Z,8.07
2022-08-17T09:11:32.337Z,7.25
2022-08-17T09:12:47.838Z,5.22
2022-08-17T09:14:07.156Z,6.85
2022-08-17T09:15:35.350Z,8.10
2022-08-17T09:16:43.530Z,5.15
2022-08-17T09:18:59.399Z,6.97
2022-08-17T09:19:57.255Z,4.90
2022-08-17T09:21:06.632Z,6.82
2022-08-17T09:22:30.504Z,4.88
2022-08-17T09:23:42.470Z,5.00
2022-08-17T09:24:57.288Z,5.32
2022-08-17T09:26:03.232Z,7.32
2022-08-17T09:27:16.071Z,4.47
2022-08-17T09:28:21.501Z,4.85
2022-08-17T09:29:25.620Z,4.75
2022-08-17T09:30:50.886Z,3.55
2022-08-17T09:31:58.849Z,4.68
2022-08-17T09:33:06.705Z,7.90
2022-08-17T09:34:14.216Z,8.63
2022-08-17T09:35:36.733Z,5.30
2022-08-17T09:36:52.557Z,5.13
2022-08-17T09:38:21.764Z,7.00
2022-08-17T09:39:47.600Z,4.15
2022-08-17T09:41:32.782Z,5.90
2022-08-17T09:42:40.673Z,4.88
2022-08-17T09:44:22.663Z,4.68
2022-08-17T09:45:37.494Z,4.72
2022-08-17T09:46:48.664Z,4.80
2022-08-17T09:48:02.772Z,4.80
2022-08-17T09:49:23.165Z,4.75
2022-08-17T09:51:05.890Z,3.05
2022-08-17T09:52:29.896Z,5.00
2022-08-17T09:53:32.777Z,4.22
2022-08-17T09:54:39.491Z,7.32
2022-08-17T09:56:06.544Z,4.20
2022-08-17T09:57:32.128Z,3.22
2022-08-17T09:59:05.126Z,4.45
2022-08-17T10:00:20.086Z,2.53
2022-08-17T10:01:31.488Z,3.53
2022-08-17T10:02:40.687Z,5.50
2022-08-17T10:04:05.778Z,7.00
2022-08-17T10:05:18.115Z,4.93
2022-08-17T10:06:25.165Z,7.15
2022-08-17T10:07:41.014Z,5.13
2022-08-17T10:08:55.806Z,3.03
2022-08-17T10:10:15.279Z,5.32
2022-08-17T10:11:33.717Z,7.40
2022-08-17T10:12:47.196Z,6.68
2022-08-17T10:14:37.694Z,3.92
2022-08-17T10:15:55.923Z,6.75
2022-08-17T10:17:08.173Z,3.72
2022-08-17T10:18:37.817Z,6.07
2022-08-17T10:19:52.249Z,2.88
2022-08-17T10:21:34.344Z,5.15
2022-08-17T10:23:13.115Z,2.90
2022-08-17T10:25:21.330Z,3.90
2022-08-17T10:26:07.202Z,3.58
2022-08-17T10:27:15.669Z,2.88
2022-08-17T10:28:25.829Z,2.88
2022-08-17T10:29:52.742Z,2.03
2022-08-17T10:31:16.729Z,5.10
2022-08-17T10:32:45.340Z,3.97
2022-08-17T10:34:00.974Z,4.38
2022-08-17T10:35:16.734Z,4.32
2022-08-17T10:36:43.331Z,4.13
2022-08-17T10:38:09.027Z,3.15
2022-08-17T10:39:30.762Z,5.20
2022-08-17T10:40:52.173Z,2.78
2022-08-17T10:41:58.964Z,4.80
2022-08-17T10:43:42.116Z,6.13
2022-08-17T10:45:26.294Z,2.17
2022-08-17T10:46:55.621Z,6.10
2022-08-17T10:48:05.125Z,3.83
2022-08-17T10:49:17.757Z,3.50
2022-08-17T10:51:00.701Z,6.40
2022-08-17T10:52:20.054Z,2.63
2022-08-17T10:53:31.864Z,4.70
2022-08-17T10:54:38.958Z,6.45
2022-08-17T10:56:13.586Z,3.58
2022-08-17T10:57:34.426Z,2.10
2022-08-17T10:58:55.015Z,6.38
2022-08-17T10:59:59.521Z,6.72
2022-08-17T11:01:04.034Z,2.20
2022-08-17T11:02:20.300Z,5.10
2022-08-17T11:03:24.788Z,3.65
2022-08-17T11:04:51.710Z,5.05
2022-08-17T11:06:18.375Z,6.57
2022-08-17T11:07:33.232Z,9.95
2022-08-17T11:08:48.763Z,2.75
2022-08-17T11:10:28.363Z,3.28
2022-08-17T11:11:58.844Z,3.50
2022-08-17T11:13:26.721Z,2.65
2022-08-17T11:14:51.578Z,2.97
2022-08-17T11:16:27.368Z,5.47
2022-08-17T11:17:49.856Z,8.27
2022-08-17T11:19:32.118Z,2.33
2022-08-17T11:20:56.540Z,3.42
2022-08-17T11:22:31.295Z,5.53
2022-08-17T11:23:41.821Z,3.22
2022-08-17T11:24:51.562Z,3.80
2022-08-17T11:27:21.827Z,3.75
2022-08-17T11:28:34.625Z,6.65
2022-08-17T11:29:58.166Z,3.58
2022-08-17T11:31:38.396Z,4.25
2022-08-17T11:32:52.886Z,9.95
2022-08-17T11:34:02.141Z,4.30
2022-08-17T11:35:23.464Z,6.35
2022-08-17T11:36:53.247Z,3.47
2022-08-17T11:38:19.933Z,5.28
2022-08-17T11:39:28.849Z,2.60
2022-08-17T11:40:55.631Z,7.53
2022-08-17T11:42:17.923Z,5.03
2022-08-17T11:43:52.175Z,3.00
2022-08-17T11:45:32.397Z,8.38
2022-08-17T11:47:24.603Z,4.35
2022-08-17T11:49:13.099Z,5.15
2022-08-17T11:50:56.378Z,5.18
2022-08-17T11:52:01.839Z,7.78
2022-08-17T11:53:05.568Z,4.32
2022-08-17T11:54:33.847Z,5.05
2022-08-17T11:55:57.019Z,7.35
2022-08-17T11:57:02.323Z,5.15
2022-08-17T11:58:23.857Z,6.38
2022-08-17T11:59:43.852Z,8.25
2022-08-17T12:00:46.379Z,4.18
2022-08-17T12:01:57.271Z,4.05
2022-08-17T12:03:22.552Z,8.40
2022-08-17T12:04:34.173Z,4.60
2022-08-17T12:05:37.139Z,4.00
2022-08-17T12:06:47.239Z,3.85
2022-08-17T12:08:17.806Z,3.92
2022-08-17T12:09:26.803Z,5.68
2022-08-17T12:10:34.395Z,12.35
2022-08-17T12:11:58.665Z,4.82
2022-08-17T12:13:15.313Z,5.50
2022-08-17T12:14:40.073Z,4.90
2022-08-17T12:15:51.494Z,3.25
2022-08-17T12:17:09.290Z,5.30
2022-08-17T12:18:20.400Z,4.07
2022-08-17T12:19:23.831Z,5.65
2022-08-17T12:20:40.332Z,6.35
2022-08-17T12:21:46.417Z,8.10
2022-08-17T12:23:05.564Z,7.53
2022-08-17T12:24:31.553Z,6.93
2022-08-17T12:25:36.555Z,6.68
2022-08-17T12:26:40.692Z,3.53
2022-08-17T12:28:05.286Z,10.20
2022-08-17T12:29:17.908Z,4.85
2022-08-17T12:30:37.998Z,10.85
2022-08-17T12:31:47.268Z,6.93
2022-08-17T12:32:50.216Z,5.68
2022-08-17T12:33:53.414Z,11.50
2022-08-17T12:34:56.213Z,5.78
2022-08-17T12:36:05.484Z,15.27
2022-08-17T12:37:25.010Z,5.18
2022-08-17T12:38:33.327Z,8.27
2022-08-17T12:39:51.384Z,8.10
2022-08-17T12:40:58.537Z,8.45
2022-08-17T12:42:02.877Z,8.73
2022-08-17T12:43:11.786Z,7.30
2022-08-17T12:44:23.881Z,6.35
2022-08-17T12:45:32.723Z,8.98
2022-08-17T12:47:07.111Z,7.50
2022-08-17T12:48:12.548Z,7.28
2022-08-17T12:49:22.927Z,6.05
2022-08-17T12:50:28.734Z,6.38
2022-08-17T12:51:34.381Z,4.75
2022-08-17T12:52:42.407Z,8.43
2022-08-17T12:53:53.177Z,7.43
2022-08-17T12:55:00.217Z,8.13
2022-08-17T12:56:08.340Z,5.53
2022-08-17T12:57:21.759Z,4.40
2022-08-17T12:58:28.569Z,5.93
2022-08-17T12:59:33.156Z,4.80
2022-08-17T13:00:47.440Z,6.72
2022-08-17T13:01:51.005Z,9.75
2022-08-17T13:03:19.435Z,10.00
2022-08-17T13:04:22.109Z,5.65
2022-08-17T13:05:28.904Z,6.97
2022-08-17T13:06:36.782Z,6.90
2022-08-17T13:07:42.741Z,7.63
2022-08-17T13:08:50.311Z,7.53
2022-08-17T13:09:53.343Z,5.78
2022-08-17T13:11:17.895Z,11.10
2022-08-17T13:12:27.904Z,9.15
2022-08-17T13:13:36.100Z,9.80
2022-08-17T13:14:45.759Z,9.15
2022-08-17T13:16:01.530Z,5.60
2022-08-17T13:17:09.883Z,8.10
2022-08-17T13:18:41.685Z,8.60
2022-08-17T13:19:49.422Z,9.93
2022-08-17T13:20:54.232Z,7.88
2022-08-17T13:22:01.782Z,12.80
2022-08-17T13:23:11.852Z,6.32
2022-08-17T13:24:19.733Z,5.53
2022-08-17T13:25:22.531Z,6.53
2022-08-17T13:26:36.062Z,6.13
2022-08-17T13:27:42.303Z,5.88
2022-08-17T13:28:48.683Z,8.50
2022-08-17T13:29:59.670Z,12.05
2022-08-17T13:31:22.362Z,7.20
2022-08-17T13:32:31.148Z,4.82
2022-08-17T13:33:43.467Z,3.92
2022-08-17T13:35:13.811Z,12.52
2022-08-17T13:36:30.115Z,10.60
2022-08-17T13:37:35.439Z,7.00
2022-08-17T13:38:49.696Z,6.95
2022-08-17T13:40:10.740Z,5.45
2022-08-17T13:41:36.073Z,5.90
2022-08-17T13:42:54.171Z,8.68
2022-08-17T13:43:57.173Z,7.35
2022-08-17T13:45:00.802Z,7.50
2022-08-17T13:46:17.488Z,8.85
2022-08-17T13:47:21.067Z,7.53
2022-08-17T13:48:26.948Z,10.57
2022-08-17T13:49:41.910Z,10.60
2022-08-17T13:50:57.233Z,11.23
2022-08-17T13:52:00.347Z,7.95
2022-08-17T13:53:18.584Z,15.27
2022-08-17T13:54:29.464Z,4.85
2022-08-17T13:55:32.245Z,7.45
2022-08-17T13:57:08.092Z,8.77
2022-08-17T13:58:10.872Z,7.72
2022-08-17T13:59:54.300Z,12.90
2022-08-17T14:00:48.400Z,8.63
2022-08-17T14:01:54.120Z,14.65
2022-08-17T14:02:58.681Z,10.30
2022-08-17T14:04:05.076Z,7.85
2022-08-17T14:05:08.308Z,10.05
2022-08-17T14:06:53.277Z,9.40
2022-08-17T14:07:40.280Z,13.13
2022-08-17T14:08:43.297Z,5.00
2022-08-17T14:09:51.890Z,13.35
2022-08-17T14:10:58.382Z,7.70
2022-08-17T14:12:02.425Z,15.85
2022-08-17T14:13:06.723Z,9.82
2022-08-17T14:14:09.513Z,13.55
2022-08-17T14:15:17.629Z,15.02
2022-08-17T14:16:20.809Z,8.98
2022-08-17T14:17:24.914Z,6.35
2022-08-17T14:18:55.448Z,8.02
2022-08-17T14:19:51.195Z,7.80
2022-08-17T14:20:56.710Z,10.43
2022-08-17T14:22:00.604Z,8.32
2022-08-17T14:23:03.203Z,11.02
2022-08-17T14:24:10.470Z,5.97
2022-08-17T14:25:14.713Z,9.40
2022-08-17T14:26:17.919Z,6.93
2022-08-17T14:27:21.113Z,10.70
2022-08-17T14:28:24.737Z,9.93
2022-08-17T14:29:32.447Z,9.52
2022-08-17T14:30:35.777Z,6.57
2022-08-17T14:31:39.179Z,11.88
2022-08-17T14:32:42.235Z,13.02
2022-08-17T14:33:44.961Z,10.02
2022-08-17T14:34:49.742Z,9.40
2022-08-17T14:35:53.603Z,8.63
2022-08-17T14:36:57.099Z,9.35
2022-08-17T14:38:00.179Z,10.77
2022-08-17T14:39:02.919Z,15.15
2022-08-17T14:40:09.351Z,6.30
2022-08-17T14:41:12.243Z,14.27
2022-08-17T14:42:15.652Z,9.15
2022-08-17T14:43:18.799Z,9.18
2022-08-17T14:44:21.641Z,6.10
2022-08-17T14:45:30.155Z,9.20
2022-08-17T14:46:35.018Z,6.82
2022-08-17T14:47:40.347Z,7.68
2022-08-17T14:48:42.999Z,8.45
2022-08-17T14:49:48.304Z,5.28
2022-08-17T14:50:51.030Z,9.45
2022-08-17T14:51:54.011Z,11.23
2022-08-17T14:52:57.966Z,5.60
2022-08-17T14:54:01.290Z,9.35
2022-08-17T14:55:04.595Z,12.95
2022-08-17T14:56:07.315Z,10.88
2022-08-17T14:57:23.683Z,6.47
2022-08-17T14:58:33.090Z,7.47
2022-08-17T14:59:36.149Z,4.30
2022-08-17T15:00:39.791Z,6.18
2022-08-17T15:01:43.055Z,9.35
2022-08-17T15:02:58.458Z,8.85
2022-08-17T15:04:01.419Z,8.00
2022-08-17T15:05:05.993Z,8.88
2022-08-17T15:06:09.464Z,9.63
2022-08-17T15:07:12.421Z,16.00
2022-08-17T15:08:16.707Z,6.78
2022-08-17T15:09:19.557Z,9.25
2022-08-17T15:10:23.414Z,10.95
2022-08-17T15:11:28.659Z,9.98
2022-08-17T15:12:33.769Z,9.20
2022-08-17T15:13:37.256Z,9.60
2022-08-17T15:14:55.101Z,12.70
2022-08-17T15:15:59.912Z,13.45
2022-08-17T15:17:03.750Z,9.93
2022-08-17T15:18:08.354Z,10.00
2022-08-17T15:19:11.292Z,14.27
2022-08-17T15:20:17.731Z,7.85
2022-08-17T15:21:20.714Z,8.27
2022-08-17T15:22:27.192Z,21.17
2022-08-17T15:23:32.256Z,7.75
2022-08-17T15:24:34.951Z,8.73
2022-08-17T15:25:37.653Z,12.80
2022-08-17T15:26:41.129Z,10.02
2022-08-17T15:27:46.113Z,8.45
2022-08-17T15:28:49.973Z,9.23
2022-08-17T15:29:57.144Z,7.25
2022-08-17T15:30:59.816Z,10.32
2022-08-17T15:32:02.722Z,9.43
2022-08-17T15:33:05.561Z,7.50
2022-08-17T15:34:08.793Z,9.25
2022-08-17T15:35:12.938Z,9.25
2022-08-17T15:36:16.366Z,9.35
2022-08-17T15:37:19.262Z,9.75
2022-08-17T15:38:25.717Z,6.40
2022-08-17T15:39:28.828Z,7.75
2022-08-17T15:40:31.692Z,11.75
2022-08-17T15:41:40.738Z,7.22